createdAt,value
2019-03-17T00:02:20.037Z,13.80
2019-03-17T00:04:48.784Z,12.10
2019-03-17T00:07:17.601Z,11.53
2019-03-17T00:09:46.110Z,13.07
2019-03-17T00:12:14.821Z,10.20
2019-03-17T00:14:43.408Z,10.83
2019-03-17T00:17:12.136Z,12.03
2019-03-17T00:19:41.087Z,11.33
2019-03-17T00:22:09.373Z,9.50
2019-03-17T00:24:38.405Z,10.53
2019-03-17T00:27:06.757Z,9.83
2019-03-17T00:29:35.344Z,9.17
2019-03-17T00:32:03.863Z,9.83
2019-03-17T00:34:43.710Z,10.10
2019-03-17T00:37:02.721Z,10.30
2019-03-17T00:39:31.147Z,10.10
2019-03-17T00:41:59.693Z,9.10
2019-03-17T00:44:28.424Z,9.37
2019-03-17T00:46:57.572Z,9.03
2019-03-17T00:49:26.195Z,7.93
2019-03-17T00:51:54.917Z,7.93
2019-03-17T00:54:23.258Z,7.87
2019-03-17T00:56:52.006Z,8.67
2019-03-17T00:59:20.584Z,9.17
2019-03-17T01:01:49.361Z,8.70
2019-03-17T01:04:18.046Z,9.30
2019-03-17T01:06:46.787Z,8.80
2019-03-17T01:09:15.529Z,8.43
2019-03-17T01:11:44.417Z,8.83
2019-03-17T01:14:12.936Z,9.07
2019-03-17T01:16:41.488Z,9.67
2019-03-17T01:19:09.769Z,8.73
2019-03-17T01:21:38.132Z,8.93
2019-03-17T01:24:06.505Z,9.67
2019-03-17T01:26:35.032Z,8.87
2019-03-17T01:29:03.984Z,10.13
2019-03-17T01:31:32.684Z,9.50
2019-03-17T01:34:01.666Z,10.47
2019-03-17T01:36:29.930Z,10.17
2019-03-17T01:38:58.346Z,8.73
2019-03-17T01:41:26.693Z,10.30
2019-03-17T01:43:55.322Z,9.73
2019-03-17T01:46:23.905Z,9.43
2019-03-17T01:48:53.588Z,11.10
2019-03-17T01:51:22.129Z,10.20
2019-03-17T01:53:50.826Z,11.47
2019-03-17T01:56:19.498Z,11.57
2019-03-17T01:58:48.190Z,10.87
2019-03-17T02:01:16.869Z,10.87
2019-03-17T02:03:45.833Z,10.60
2019-03-17T02:06:14.557Z,11.07
2019-03-17T02:08:43.213Z,10.60
2019-03-17T02:11:12.259Z,10.97
2019-03-17T02:13:40.925Z,9.80
2019-03-17T02:16:10.697Z,11.47
2019-03-17T02:18:39.188Z,12.85
2019-03-17T02:21:07.924Z,11.57
2019-03-17T02:23:36.746Z,10.90
2019-03-17T02:26:05.272Z,9.97
2019-03-17T02:28:34.108Z,11.53
2019-03-17T02:31:02.621Z,10.07
2019-03-17T02:33:31.273Z,9.53
2019-03-17T02:35:59.687Z,9.37
2019-03-17T02:38:28.036Z,9.67
2019-03-17T02:40:56.405Z,10.23
2019-03-17T02:43:24.764Z,10.33
2019-03-17T02:45:53.170Z,9.30
2019-03-17T02:48:21.592Z,11.10
2019-03-17T02:50:50.264Z,9.43
2019-03-17T02:53:19.069Z,8.90
2019-03-17T02:55:47.629Z,8.90
2019-03-17T02:58:16.408Z,8.03
2019-03-17T03:00:44.881Z,9.47
2019-03-17T03:03:13.577Z,8.70
2019-03-17T03:05:53.849Z,8.17
2019-03-17T03:08:12.235Z,8.10
2019-03-17T03:10:40.926Z,8.33
2019-03-17T03:13:09.713Z,8.30
2019-03-17T03:15:38.547Z,8.87
2019-03-17T03:18:08.396Z,7.20
2019-03-17T03:20:37.304Z,8.33
2019-03-17T03:23:06.130Z,8.77
2019-03-17T03:25:35.554Z,7.27
2019-03-17T03:28:04.204Z,8.87
2019-03-17T03:30:32.969Z,7.90
2019-03-17T03:33:01.967Z,8.27
2019-03-17T03:35:30.793Z,8.10
2019-03-17T03:37:59.449Z,7.50
2019-03-17T03:40:28.401Z,7.80
2019-03-17T03:42:57.169Z,8.47
2019-03-17T03:45:26.369Z,8.40
2019-03-17T03:47:55.132Z,9.30
2019-03-17T03:50:23.939Z,9.90
2019-03-17T03:52:52.984Z,9.17
2019-03-17T03:55:21.925Z,8.87
2019-03-17T03:57:50.638Z,7.97
2019-03-17T04:00:19.325Z,10.08
2019-03-17T04:02:48.286Z,8.63
2019-03-17T04:05:16.612Z,8.83
2019-03-17T04:07:45.276Z,8.13
2019-03-17T04:10:13.664Z,7.43
2019-03-17T04:12:42.120Z,8.30
2019-03-17T04:15:10.736Z,7.47
2019-03-17T04:17:39.535Z,7.70
2019-03-17T04:20:08.345Z,7.93
2019-03-17T04:22:36.554Z,7.67
2019-03-17T04:25:05.197Z,9.60
2019-03-17T04:27:33.916Z,7.07
2019-03-17T04:30:02.909Z,7.73
2019-03-17T04:32:31.609Z,8.87
2019-03-17T04:34:59.937Z,9.13
2019-03-17T04:37:29.588Z,9.33
2019-03-17T04:39:58.572Z,11.07
2019-03-17T04:42:28.851Z,11.20
2019-03-17T04:44:57.476Z,10.70
2019-03-17T04:47:26.340Z,10.33
2019-03-17T04:49:54.810Z,10.70
2019-03-17T04:52:23.737Z,11.23
2019-03-17T04:54:52.428Z,9.50
2019-03-17T04:57:20.856Z,9.67
2019-03-17T04:59:50.516Z,10.03
2019-03-17T05:02:19.569Z,8.90
2019-03-17T05:04:48.504Z,8.93
2019-03-17T05:07:17.219Z,8.93
2019-03-17T05:09:46.239Z,8.03
2019-03-17T05:12:15.172Z,9.23
2019-03-17T05:14:43.939Z,7.40
2019-03-17T05:17:12.857Z,7.53
2019-03-17T05:19:41.544Z,7.13
2019-03-17T05:22:10.105Z,7.07
2019-03-17T05:24:38.913Z,7.27
2019-03-17T05:27:07.655Z,9.67
2019-03-17T05:29:36.321Z,8.87
2019-03-17T05:32:04.895Z,9.60
2019-03-17T05:34:33.424Z,9.40
2019-03-17T05:37:06.481Z,8.43
2019-03-17T05:39:32.266Z,9.00
2019-03-17T05:42:01.852Z,9.70
2019-03-17T05:44:30.253Z,8.63
2019-03-17T05:46:59.853Z,8.93
2019-03-17T05:49:29.820Z,9.20
2019-03-17T05:51:58.814Z,9.47
2019-03-17T05:54:27.463Z,8.57
2019-03-17T05:56:56.492Z,9.50
2019-03-17T05:59:25.158Z,7.90
2019-03-17T06:01:53.808Z,7.63
2019-03-17T06:04:22.540Z,7.37
2019-03-17T06:06:51.176Z,7.40
2019-03-17T06:09:19.965Z,6.37
2019-03-17T06:11:48.915Z,6.83
2019-03-17T06:14:17.897Z,6.83
2019-03-17T06:16:46.485Z,6.20
2019-03-17T06:19:15.281Z,7.07
2019-03-17T06:21:43.846Z,5.60
2019-03-17T06:24:12.337Z,6.50
2019-03-17T06:26:41.044Z,7.30
2019-03-17T06:29:09.964Z,6.30
2019-03-17T06:31:38.710Z,6.53
2019-03-17T06:34:07.420Z,6.27
2019-03-17T06:36:36.940Z,7.47
2019-03-17T06:39:06.452Z,5.77
2019-03-17T06:41:35.296Z,5.53
2019-03-17T06:44:03.844Z,6.17
2019-03-17T06:46:32.671Z,6.43
2019-03-17T06:49:02.424Z,6.03
2019-03-17T06:51:30.883Z,6.53
2019-03-17T06:53:59.229Z,6.20
2019-03-17T06:56:27.662Z,5.40
2019-03-17T06:58:56.052Z,5.27
2019-03-17T07:01:24.720Z,5.57
2019-03-17T07:03:54.264Z,6.60
2019-03-17T07:09:25.804Z,6.73
2019-03-17T07:11:54.681Z,5.60
2019-03-17T07:14:23.183Z,8.07
2019-03-17T07:16:51.848Z,6.67
2019-03-17T07:19:20.257Z,7.20
2019-03-17T07:21:48.868Z,7.87
2019-03-17T07:24:17.360Z,8.23
2019-03-17T07:26:46.028Z,7.70
2019-03-17T07:29:15.030Z,9.33
2019-03-17T07:31:44.037Z,8.47
2019-03-17T07:34:12.677Z,9.67
2019-03-17T07:36:41.228Z,7.90
2019-03-17T07:39:12.156Z,10.10
2019-03-17T07:41:40.232Z,8.93
2019-03-17T07:44:08.997Z,9.40
2019-03-17T07:46:37.990Z,9.50
2019-03-17T07:49:06.728Z,9.53
2019-03-17T07:51:35.415Z,7.40
2019-03-17T07:54:04.355Z,7.80
2019-03-17T07:56:33.003Z,5.27
2019-03-17T07:59:01.726Z,6.47
2019-03-17T08:01:30.822Z,4.17
2019-03-17T08:03:59.460Z,4.40
2019-03-17T08:06:28.060Z,5.40
2019-03-17T08:08:57.392Z,5.10
2019-03-17T08:11:26.024Z,4.40
2019-03-17T08:13:54.762Z,6.20
2019-03-17T08:16:23.700Z,6.50
2019-03-17T08:18:52.442Z,5.70
2019-03-17T08:21:21.435Z,5.40
2019-03-17T08:23:50.428Z,4.43
2019-03-17T08:26:19.123Z,4.77
2019-03-17T08:28:48.313Z,4.70
2019-03-17T08:31:17.101Z,5.17
2019-03-17T08:33:45.947Z,5.60
2019-03-17T08:36:14.353Z,5.50
2019-03-17T08:38:42.761Z,4.83
2019-03-17T08:41:11.424Z,5.50
2019-03-17T08:43:39.971Z,5.23
2019-03-17T08:46:08.564Z,5.10
2019-03-17T08:48:37.229Z,5.90
2019-03-17T08:51:05.550Z,5.57
2019-03-17T08:53:34.350Z,5.33
2019-03-17T08:56:03.000Z,4.33
2019-03-17T08:58:31.677Z,4.83
2019-03-17T09:01:01.330Z,3.40
2019-03-17T09:03:30.265Z,3.87
2019-03-17T09:05:59.318Z,3.27
2019-03-17T09:08:35.044Z,3.07
2019-03-17T09:10:59.144Z,2.93
2019-03-17T09:13:27.785Z,3.30
2019-03-17T09:15:56.109Z,3.57
2019-03-17T09:18:27.021Z,3.10
2019-03-17T09:20:55.210Z,3.90
2019-03-17T09:23:24.417Z,3.70
2019-03-17T09:25:53.410Z,3.47
2019-03-17T09:28:22.403Z,3.33
2019-03-17T09:30:51.009Z,4.00
2019-03-17T09:33:19.776Z,3.27
2019-03-17T09:35:48.461Z,3.27
2019-03-17T09:38:17.454Z,3.17
2019-03-17T09:40:46.053Z,3.03
2019-03-17T09:43:14.768Z,3.50
2019-03-17T09:45:43.554Z,2.80
2019-03-17T09:48:12.504Z,3.40
2019-03-17T09:50:40.915Z,2.83
2019-03-17T09:53:09.152Z,3.00
2019-03-17T09:55:37.947Z,2.80
2019-03-17T09:58:06.898Z,3.03
2019-03-17T10:00:35.796Z,3.37
2019-03-17T10:03:04.263Z,3.50
2019-03-17T10:05:32.894Z,3.00
2019-03-17T10:08:02.345Z,2.70
2019-03-17T10:10:31.109Z,2.77
2019-03-17T10:12:59.642Z,2.37
2019-03-17T10:15:28.495Z,3.10
2019-03-17T10:17:58.283Z,2.93
2019-03-17T10:20:27.218Z,3.00
2019-03-17T10:22:56.524Z,3.87
2019-03-17T10:25:25.484Z,3.30
2019-03-17T10:27:54.930Z,3.30
2019-03-17T10:30:25.047Z,3.30
2019-03-17T10:32:54.165Z,3.60
2019-03-17T10:35:22.717Z,4.27
2019-03-17T10:37:51.867Z,2.93
2019-03-17T10:40:20.998Z,2.93
2019-03-17T10:42:49.625Z,3.17
2019-03-17T10:45:18.017Z,3.87
2019-03-17T10:47:46.805Z,3.20
2019-03-17T10:50:15.305Z,3.40
2019-03-17T10:52:44.173Z,3.30
2019-03-17T10:55:12.572Z,3.90
2019-03-17T10:57:41.488Z,3.00
2019-03-17T11:00:11.225Z,3.30
2019-03-17T11:02:39.864Z,3.17
2019-03-17T11:05:08.461Z,3.50
2019-03-17T11:07:37.211Z,3.97
2019-03-17T11:10:05.737Z,3.13
2019-03-17T11:12:34.381Z,3.33
2019-03-17T11:15:02.996Z,2.73
2019-03-17T11:17:31.635Z,3.27
2019-03-17T11:20:00.163Z,3.23
2019-03-17T11:22:29.325Z,2.97
2019-03-17T11:24:58.488Z,3.00
2019-03-17T11:27:30.384Z,3.40
2019-03-17T11:29:58.986Z,3.40
2019-03-17T11:32:27.409Z,3.00
2019-03-17T11:34:56.062Z,3.80
2019-03-17T11:37:25.502Z,3.37
2019-03-17T11:39:54.433Z,3.37
2019-03-17T11:42:24.345Z,3.50
2019-03-17T11:44:53.282Z,2.90
2019-03-17T11:47:22.734Z,3.30
2019-03-17T11:49:51.904Z,3.03
2019-03-17T11:52:20.537Z,3.00
2019-03-17T11:54:48.977Z,3.03
2019-03-17T11:57:17.694Z,3.17
2019-03-17T11:59:46.678Z,3.10
2019-03-17T12:02:25.970Z,2.83
2019-03-17T12:04:45.716Z,2.33
2019-03-17T12:07:14.231Z,3.00
2019-03-17T12:09:50.045Z,2.60
2019-03-17T12:12:13.144Z,3.00
2019-03-17T12:14:41.767Z,3.17
2019-03-17T12:17:10.391Z,3.67
2019-03-17T12:19:38.851Z,2.90
2019-03-17T12:22:09.310Z,2.93
2019-03-17T12:24:38.661Z,3.13
2019-03-17T12:27:07.447Z,2.90
2019-03-17T12:29:36.389Z,2.77
2019-03-17T12:32:05.014Z,2.97
2019-03-17T12:34:33.480Z,3.17
2019-03-17T12:37:02.030Z,2.80
2019-03-17T12:39:30.505Z,3.53
2019-03-17T12:41:59.252Z,2.87
2019-03-17T12:44:27.905Z,2.63
2019-03-17T12:46:56.317Z,2.73
2019-03-17T12:49:24.895Z,3.15
2019-03-17T12:51:53.437Z,2.63
2019-03-17T12:54:22.045Z,3.03
2019-03-17T12:56:51.061Z,2.80
2019-03-17T12:59:20.007Z,2.70
2019-03-17T13:01:48.388Z,3.67
2019-03-17T13:04:17.139Z,3.23
2019-03-17T13:06:45.549Z,2.97
2019-03-17T13:09:14.229Z,2.83
2019-03-17T13:11:42.536Z,3.90
2019-03-17T13:14:11.293Z,3.55
2019-03-17T13:16:39.977Z,3.52
2019-03-17T13:19:08.475Z,3.42
2019-03-17T13:21:37.196Z,3.40
2019-03-17T13:24:06.050Z,3.85
2019-03-17T13:26:34.941Z,3.60
2019-03-17T13:29:03.793Z,3.22
2019-03-17T13:31:32.341Z,3.52
2019-03-17T13:34:00.757Z,2.55
2019-03-17T13:36:32.943Z,3.12
2019-03-17T13:39:01.697Z,3.08
2019-03-17T13:41:31.627Z,3.45
2019-03-17T13:44:00.395Z,3.20
2019-03-17T13:46:28.929Z,3.42
2019-03-17T13:48:57.407Z,2.58
2019-03-17T13:51:25.890Z,3.30
2019-03-17T13:53:54.275Z,3.33
2019-03-17T13:56:22.782Z,3.10
2019-03-17T13:58:51.237Z,2.92
2019-03-17T14:01:19.553Z,3.67
2019-03-17T14:03:51.000Z,3.52
2019-03-17T14:06:19.418Z,3.05
2019-03-17T14:08:48.177Z,3.33
2019-03-17T14:11:16.516Z,4.42
2019-03-17T14:13:46.084Z,3.83
2019-03-17T14:16:15.767Z,3.60
2019-03-17T14:18:53.301Z,3.17
2019-03-17T14:21:24.432Z,3.00
2019-03-17T14:23:52.104Z,2.90
2019-03-17T14:26:20.836Z,3.17
2019-03-17T14:28:49.654Z,3.08
2019-03-17T14:31:19.043Z,3.62
2019-03-17T14:33:47.577Z,3.58
2019-03-17T14:36:17.235Z,3.62
2019-03-17T14:38:45.921Z,3.87
2019-03-17T14:41:14.522Z,3.20
2019-03-17T14:43:42.945Z,3.67
2019-03-17T14:46:11.216Z,3.02
2019-03-17T14:48:39.744Z,2.85
2019-03-17T14:51:08.315Z,3.55
2019-03-17T14:53:37.117Z,2.77
2019-03-17T14:56:06.791Z,3.20
2019-03-17T14:58:35.714Z,2.90
2019-03-17T15:01:04.709Z,3.87
2019-03-17T15:03:34.932Z,2.67
2019-03-17T15:06:04.525Z,2.73
2019-03-17T15:08:34.121Z,2.83
2019-03-17T15:11:06.085Z,3.00
2019-03-17T15:13:33.403Z,2.93
2019-03-17T15:16:03.015Z,3.20
2019-03-17T15:18:31.671Z,2.83
2019-03-17T15:21:00.457Z,3.23
2019-03-17T15:23:28.912Z,3.10
2019-03-17T15:25:57.403Z,3.47
2019-03-17T15:28:27.209Z,2.40
2019-03-17T15:31:09.788Z,2.80
2019-03-17T15:33:25.877Z,2.63
2019-03-17T15:35:54.212Z,2.73
2019-03-17T15:38:22.726Z,3.13
2019-03-17T15:40:51.259Z,2.87
2019-03-17T15:43:19.893Z,3.40
2019-03-17T15:45:48.322Z,4.27
2019-03-17T15:48:17.080Z,3.30
2019-03-17T15:50:45.744Z,3.70
2019-03-17T15:53:14.794Z,4.53
2019-03-17T15:55:44.017Z,3.17
2019-03-17T15:58:12.528Z,4.07
2019-03-17T16:00:42.042Z,3.13
2019-03-17T16:03:10.767Z,2.87
2019-03-17T16:05:39.400Z,3.10
2019-03-17T16:08:08.129Z,3.33
2019-03-17T16:10:37.129Z,2.80
2019-03-17T16:13:06.100Z,3.60
2019-03-17T16:15:34.762Z,3.83
2019-03-17T16:18:03.493Z,3.23
2019-03-17T16:20:32.092Z,3.63
2019-03-17T16:23:00.532Z,3.87
2019-03-17T16:25:29.221Z,3.60
2019-03-17T16:27:58.048Z,3.83
2019-03-17T16:30:26.500Z,3.50
2019-03-17T16:32:55.055Z,3.90
2019-03-17T16:35:24.197Z,3.87
2019-03-17T16:37:53.288Z,3.60
2019-03-17T16:40:21.796Z,3.57
2019-03-17T16:42:53.350Z,3.33
2019-03-17T16:45:21.029Z,4.13
2019-03-17T16:47:49.875Z,3.27
2019-03-17T16:50:18.458Z,4.13
2019-03-17T16:52:48.189Z,3.43
2019-03-17T16:55:17.614Z,4.20
2019-03-17T16:57:46.300Z,3.67
2019-03-17T17:00:18.905Z,3.50
2019-03-17T17:02:46.967Z,4.23
2019-03-17T17:05:15.898Z,4.00
2019-03-17T17:07:44.276Z,3.90
2019-03-17T17:10:16.205Z,4.33
2019-03-17T17:12:44.837Z,4.30
2019-03-17T17:15:18.324Z,4.13
2019-03-17T17:17:46.945Z,5.20
2019-03-17T17:20:16.540Z,4.60
2019-03-17T17:22:45.462Z,4.10
2019-03-17T17:25:14.768Z,3.70
2019-03-17T17:27:43.537Z,4.67
2019-03-17T17:30:12.710Z,4.00
2019-03-17T17:32:41.177Z,4.27
2019-03-17T17:35:09.698Z,3.87
2019-03-17T17:37:39.757Z,3.97
2019-03-17T17:40:09.534Z,5.00
2019-03-17T17:42:38.420Z,5.70
2019-03-17T17:45:08.187Z,5.67
2019-03-17T17:47:37.079Z,4.87
2019-03-17T17:50:05.937Z,4.40
2019-03-17T17:52:34.771Z,4.10
2019-03-17T17:55:03.812Z,5.40
2019-03-17T17:57:32.743Z,5.73
2019-03-17T18:00:01.587Z,5.23
2019-03-17T18:02:31.404Z,6.60
2019-03-17T18:05:00.294Z,5.67
2019-03-17T18:07:29.910Z,6.87
2019-03-17T18:09:59.242Z,6.23
2019-03-17T18:12:28.178Z,6.30
2019-03-17T18:14:56.669Z,6.03
2019-03-17T18:17:25.268Z,6.00
2019-03-17T18:19:53.509Z,6.60
2019-03-17T18:22:23.204Z,5.70
2019-03-17T18:24:51.574Z,5.00
2019-03-17T18:27:20.356Z,6.03
2019-03-17T18:29:49.164Z,6.80
2019-03-17T18:32:17.708Z,6.20
2019-03-17T18:34:46.742Z,6.53
2019-03-17T18:37:15.380Z,5.50
2019-03-17T18:39:43.835Z,6.20
2019-03-17T18:42:12.777Z,6.13
2019-03-17T18:44:41.400Z,5.90
2019-03-17T18:47:11.453Z,5.83
2019-03-17T18:49:39.974Z,5.93
2019-03-17T18:52:09.000Z,5.13
2019-03-17T18:54:37.325Z,5.60
2019-03-17T18:57:06.182Z,5.70
2019-03-17T18:59:34.683Z,5.80
2019-03-17T19:02:03.082Z,4.80
2019-03-17T19:04:31.605Z,5.40
2019-03-17T19:07:00.388Z,5.27
2019-03-17T19:09:29.240Z,5.43
2019-03-17T19:11:58.251Z,6.03
2019-03-17T19:14:26.808Z,6.37
2019-03-17T19:16:56.199Z,6.67
2019-03-17T19:19:25.153Z,6.83
2019-03-17T19:21:53.924Z,7.63
2019-03-17T19:24:22.604Z,8.27
2019-03-17T19:26:51.292Z,7.53
2019-03-17T19:29:19.667Z,7.87
2019-03-17T19:31:47.974Z,8.00
2019-03-17T19:34:16.903Z,10.32
2019-03-17T19:36:46.318Z,8.50
2019-03-17T19:39:15.314Z,9.50
2019-03-17T19:41:44.817Z,10.87
2019-03-17T19:44:13.481Z,9.80
2019-03-17T19:46:42.041Z,9.50
2019-03-17T19:49:10.669Z,10.20
2019-03-17T19:51:39.811Z,10.87
2019-03-17T19:54:08.273Z,8.97
2019-03-17T19:56:37.035Z,10.40
2019-03-17T19:59:05.896Z,8.83
2019-03-17T20:01:35.051Z,10.80
2019-03-17T20:04:03.879Z,11.03
2019-03-17T20:06:32.441Z,11.07
2019-03-17T20:09:00.672Z,9.23
2019-03-17T20:11:29.998Z,9.13
2019-03-17T20:13:58.332Z,9.10
2019-03-17T20:16:27.092Z,8.67
2019-03-17T20:18:55.662Z,9.33
2019-03-17T20:21:26.577Z,8.57
2019-03-17T20:23:55.897Z,9.00
2019-03-17T20:26:24.809Z,9.73
2019-03-17T20:28:53.477Z,10.33
2019-03-17T20:31:22.226Z,10.50
2019-03-17T20:33:52.237Z,11.30
2019-03-17T20:36:39.792Z,9.83
2019-03-17T20:39:08.874Z,11.50
2019-03-17T20:41:41.221Z,11.70
2019-03-17T20:44:09.689Z,12.60
2019-03-17T20:46:38.356Z,11.90
2019-03-17T20:49:07.659Z,10.50
2019-03-17T20:51:38.386Z,11.43
2019-03-17T20:54:08.017Z,11.10
2019-03-17T20:56:37.321Z,12.70
2019-03-17T20:59:06.297Z,12.40
2019-03-17T21:01:35.099Z,13.50
2019-03-17T21:04:04.057Z,13.90
2019-03-17T21:06:33.221Z,16.77
2019-03-17T21:09:03.929Z,18.15
2019-03-17T21:11:33.536Z,15.67
2019-03-17T21:14:02.498Z,15.40
2019-03-17T21:16:30.809Z,16.60
2019-03-17T21:18:59.614Z,18.20
2019-03-17T21:21:28.548Z,17.10
2019-03-17T21:23:57.483Z,18.10
2019-03-17T21:26:26.282Z,18.17
2019-03-17T21:28:54.929Z,16.67
2019-03-17T21:31:23.588Z,15.23
2019-03-17T21:33:57.010Z,15.80
2019-03-17T21:36:25.511Z,14.27
2019-03-17T21:38:53.896Z,12.70
2019-03-17T21:41:22.640Z,13.57
2019-03-17T21:43:59.303Z,12.70
2019-03-17T21:46:21.441Z,11.73
2019-03-17T21:48:50.293Z,10.87
2019-03-17T21:51:19.480Z,10.07
2019-03-17T21:53:48.278Z,9.07
2019-03-17T21:56:16.849Z,10.57
2019-03-17T21:58:45.395Z,10.50
2019-03-17T22:01:14.025Z,9.53
2019-03-17T22:03:46.535Z,9.03
2019-03-17T22:06:15.393Z,9.30
2019-03-17T22:08:44.429Z,10.20
2019-03-17T22:11:13.995Z,9.07
2019-03-17T22:13:42.988Z,9.13
2019-03-17T22:16:11.980Z,9.30
2019-03-17T22:18:40.580Z,8.57
2019-03-17T22:21:09.663Z,9.43
2019-03-17T22:23:38.345Z,10.63
2019-03-17T22:26:07.384Z,9.67
2019-03-17T22:28:35.945Z,9.23
2019-03-17T22:31:04.378Z,7.90
2019-03-17T22:33:33.000Z,8.23
2019-03-17T22:36:01.716Z,6.63
2019-03-17T22:38:30.771Z,5.70
2019-03-17T22:40:59.405Z,5.63
2019-03-17T22:43:28.214Z,5.20
2019-03-17T22:45:56.800Z,6.12
2019-03-17T22:48:25.564Z,6.77
2019-03-17T22:50:54.756Z,5.67
2019-03-17T22:53:23.745Z,5.23
2019-03-17T22:55:52.338Z,6.63
2019-03-17T22:58:20.992Z,4.73
2019-03-17T23:00:50.029Z,5.30
2019-03-17T23:03:18.830Z,6.13
2019-03-17T23:05:47.506Z,6.00
2019-03-17T23:08:17.108Z,5.53
2019-03-17T23:10:45.671Z,6.13
2019-03-17T23:13:14.162Z,5.27
2019-03-17T23:15:42.849Z,6.33
2019-03-17T23:18:11.585Z,5.63
2019-03-17T23:20:40.953Z,6.77
2019-03-17T23:23:09.878Z,5.80
2019-03-17T23:25:38.509Z,5.53
2019-03-17T23:28:07.141Z,5.70
2019-03-17T23:30:35.603Z,5.47
2019-03-17T23:33:04.237Z,5.70
2019-03-17T23:35:32.986Z,6.45
2019-03-17T23:38:01.661Z,5.23
2019-03-17T23:40:30.312Z,6.10
2019-03-17T23:42:59.002Z,5.33
2019-03-17T23:45:27.325Z,5.60
2019-03-17T23:47:56.265Z,6.03
2019-03-17T23:50:24.901Z,5.70
2019-03-17T23:52:53.473Z,4.77
2019-03-17T23:55:24.639Z,5.03
2019-03-17T23:57:54.764Z,4.30
